Latest Conditions
At L.F.Wade Int. Airport
Recorded at 7:55 am
Few Clouds
Temp.: 
28°C/82°F
Humidity: 
67%
Wind: 
E 8KT
or 9mph
Island Observations
 
Observations
Wednesday, August 05, 2020

Observations are in local time and taken at least once an hour, or upon the start and end of specified events such as showers and thunderstorms.

Time Sky / Weather Wind Speed/Gusts Temp. R.H. Pressure
     knots (mph)  °C (°F)  %  mb / "Hg
 07:55 Few Clouds  E 8/0 (9/0) 28(82) 67 1020 / 30.13
 06:55 Few Clouds  E 8/0 (9/0) 26(80) 71 1020 / 30.13
 05:55 Few Clouds  ESE 9/0 (10/0) 26(80) 71 1020 / 30.12
 04:55 Few Clouds  ESE 7/0 (8/0) 27(80) 71 1020 / 30.11
 03:55 Few Clouds  E 9/0 (10/0) 26(79) 69 1020 / 30.12
 02:55 Few Clouds  ESE 9/0 (10/0) 26(80) 69 1020 / 30.13
 01:55 Few Clouds  ESE 8/0 (9/0) 26(80) 69 1021 / 30.15
 00:55 Few Clouds  E 8/0 (9/0) 26(80) 69 1021 / 30.15
 23:55 Few Clouds  ESE 9/0 (10/0) 27(80) 69 1022 / 30.17
 22:55 Few Clouds  ESE 7/0 (8/0) 27(80) 69 1022 / 30.17
 21:55 Partly Cloudy  E 8/0 (9/0) 27(80) 71 1022 / 30.17
 20:55 Few Clouds  E 8/0 (9/0) 27(81) 72 1021 / 30.15
 19:55 Partly Cloudy  ESE 9/0 (10/0) 28(82) 70 1021 / 30.15
 18:55 Few Clouds  ESE 9/0 (10/0) 28(83) 69 1021 / 30.14
 17:55 Few Clouds  SE 9/0 (10/0) 29(85) 65 1021 / 30.15
 16:55 Few Clouds  ESE 10/0 (12/0) 30(85) 61 1021 / 30.15
 15:55 Few Clouds  ESE 11/0 (13/0) 30(86) 60 1021 / 30.15
 14:55 Few Clouds  SE 11/0 (13/0) 30(86) 63 1021 / 30.16
 13:55 Partly Cloudy  ESE 11/0 (13/0) 30(86) 62 1022 / 30.17
 12:55 Few Clouds  SE 13/0 (15/0) 30(87) 59 1022 / 30.17
 11:55 Few Clouds  ESE 14/0 (16/0) 30(86) 62 1022 / 30.17
 10:55 Few Clouds  ESE 13/0 (15/0) 30(85) 67 1022 / 30.17
 09:55 Partly Cloudy  ESE 12/0 (14/0) 30(85) 69 1022 / 30.17
 08:55 Few Clouds  E 11/0 (13/0) 29(85) 71 1022 / 30.17
 07:55 Few Clouds  E 10/0 (12/0) 28(83) 74 1021 / 30.16
 06:55 Partly Cloudy  E 10/0 (12/0) 27(81) 79 1021 / 30.15
 05:55 Partly Cloudy  E 9/0 (10/0) 27(81) 79 1021 / 30.15
 04:55 Partly Cloudy  E 9/0 (10/0) 27(81) 80 1021 / 30.15
 03:55 Mostly Cloudy Showers E 9/0 (10/0) 28(82) 77 1021 / 30.15
 02:55 Mostly Cloudy  E 10/0 (12/0) 28(82) 81 1021 / 30.16
 01:55 Partly Cloudy Showers E 10/0 (12/0) 28(82) 81 1022 / 30.17
 00:55 Mostly Cloudy Showers E 9/0 (10/0) 28(82) 82 1022 / 30.19
 23:55 Mostly Cloudy Showers E 5/0 (6/0) 28(82) 83 1023 / 30.20
 22:55 Mostly Cloudy Showers E 5/0 (6/0) 28(82) 79 1023 / 30.20
 21:55 Partly Cloudy  E 5/0 (6/0) 28(82) 82 1023 / 30.20
 20:55 Partly Cloudy  E 5/0 (6/0) 28(82) 81 1022 / 30.18
 19:55 Partly Cloudy  E 5/0 (6/0) 28(83) 81 1022 / 30.17
 18:55 Partly Cloudy  ENE 6/0 (7/0) 29(84) 78 1021 / 30.16
 17:55 Mostly Cloudy Showers ENE 6/0 (7/0) 29(84) 78 1022 / 30.17
 16:55 Mostly Cloudy Showers ENE 6/0 (7/0) 29(85) 77 1022 / 30.18
 15:55 Partly Cloudy Showers NE 6/0 (7/0) 29(84) 79 1022 / 30.18
 14:55 Partly Cloudy Showers NNE 9/0 (10/0) 31(87) 74 1022 / 30.18
 14:19 Mostly Cloudy Showers NNE 8/0 (9/0) 31(87) 74 1022 / 30.19
 13:55 Mostly Cloudy Showers N 7/0 (8/0) 29(84) 81 1023 / 30.20
 13:43 Mostly Cloudy Showers N 7/0 (8/0) 29(85) 80 1023 / 30.20
 13:30 Mostly Cloudy Showers N 8/0 (9/0) 30(87) 75 1023 / 30.20
 12:55 Partly Cloudy Showers N 7/0 (8/0) 30(87) 74 1023 / 30.20
 11:55 Partly Cloudy Showers NNW 7/0 (8/0) 30(86) 76 1023 / 30.21
 10:55 Mostly Cloudy  NNW 7/0 (8/0) 30(85) 77 1023 / 30.21
 09:55 Partly Cloudy  N 7/0 (8/0) 30(85) 77 1022 / 30.19
 08:55 Partly Cloudy  N 6/0 (7/0) 29(84) 78 1022 / 30.19
 07:55 Partly Cloudy  N 4/0 (5/0) 28(82) 85 1022 / 30.17
 06:55 Mostly Cloudy  NNE 3/0 (3/0) 28(82) 84 1021 / 30.16
 05:55 Partly Cloudy  N 3/0 (3/0) 28(82) 84 1021 / 30.15
 04:55 Mostly Cloudy  N 4/0 (5/0) 28(82) 84 1021 / 30.15
 03:55 Partly Cloudy  NNW 4/0 (5/0) 28(82) 85 1021 / 30.15
 02:55 Partly Cloudy  NNW 5/0 (6/0) 28(82) 85 1021 / 30.15
 01:55 Partly Cloudy  NNW 5/0 (6/0) 28(82) 84 1021 / 30.16
 00:55 Partly Cloudy  NW 6/0 (7/0) 28(83) 83 1022 / 30.17
 23:55 Partly Cloudy  NW 7/0 (8/0) 28(83) 83 1022 / 30.18
 22:55 Mostly Cloudy Showers NW 7/0 (8/0) 28(83) 82 1022 / 30.18
 21:55 Mostly Cloudy  WNW 8/0 (9/0) 28(83) 82 1022 / 30.17
 20:55 Mostly Cloudy  NW 9/0 (10/0) 28(83) 82 1021 / 30.15
 19:55 Partly Cloudy  WNW 11/0 (13/0) 29(83) 79 1021 / 30.14
 18:55 Partly Cloudy  WNW 12/0 (14/0) 29(85) 75 1020 / 30.13
 17:55 Partly Cloudy  WNW 11/0 (13/0) 30(86) 74 1020 / 30.12
 16:55 Partly Cloudy  W 12/0 (14/0) 30(86) 73 1020 / 30.12
 15:55 Partly Cloudy  W 11/0 (13/0) 30(86) 73 1020 / 30.12
 14:55 Partly Cloudy  W 12/0 (14/0) 30(87) 72 1020 / 30.13
 13:55 Partly Cloudy  W 11/0 (13/0) 31(87) 71 1020 / 30.12
 12:55 Few Clouds  W 10/0 (12/0) 31(87) 71 1020 / 30.13
 11:55 Few Clouds  W 11/0 (13/0) 30(86) 71 1021 / 30.14
 10:55 Few Clouds  W 11/0 (13/0) 30(86) 74 1021 / 30.14
 09:55 Few Clouds  W 11/0 (13/0) 29(85) 74 1020 / 30.13
 08:55 Partly Cloudy  W 10/0 (12/0) 29(84) 74 1020 / 30.12
 07:55 Partly Cloudy  WNW 10/0 (12/0) 28(83) 78 1020 / 30.12
 06:55 Partly Cloudy  W 11/0 (13/0) 28(83) 80 1020 / 30.11
 05:55 Few Clouds  W 12/0 (14/0) 28(82) 81 1019 / 30.10
 04:55 Few Clouds  W 12/0 (14/0) 28(82) 81 1019 / 30.09
 03:55 Few Clouds  W 13/0 (15/0) 28(82) 81 1019 / 30.09
 02:55 Few Clouds  W 12/0 (14/0) 28(83) 79 1019 / 30.09
 01:55 Few Clouds  W 12/0 (14/0) 28(83) 80 1019 / 30.10
 00:55 Partly Cloudy  W 11/0 (13/0) 28(83) 79 1020 / 30.11
 23:55 Few Clouds  W 12/0 (14/0) 28(83) 80 1020 / 30.12
 22:55 Few Clouds  W 13/0 (15/0) 28(83) 77 1020 / 30.12
 21:55 Few Clouds  W 13/0 (15/0) 29(83) 77 1020 / 30.11
 20:55 Partly Cloudy  W 14/0 (16/0) 29(83) 78 1019 / 30.09
 19:55 Partly Cloudy  W 14/0 (16/0) 29(84) 77 1018 / 30.07
 18:55 Few Clouds  WSW 15/0 (17/0) 29(85) 74 1018 / 30.05
 17:55 Partly Cloudy  WSW 16/0 (18/0) 30(86) 72 1018 / 30.06
 16:55 Partly Cloudy  WSW 17/0 (20/0) 31(87) 72 1018 / 30.06
 15:55 Mostly Cloudy  WSW 15/0 (17/0) 31(87) 72 1019 / 30.09
 14:55 Mostly Cloudy  WSW 17/0 (20/0) 31(88) 68 1019 / 30.10
 13:55 Mostly Cloudy  WSW 17/0 (20/0) 31(88) 66 1019 / 30.10
 12:55 Mostly Cloudy  WSW 15/0 (17/0) 31(87) 67 1020 / 30.12
 11:55 Mostly Cloudy  WSW 15/0 (17/0) 30(87) 69 1020 / 30.12
 10:55 Mostly Cloudy  WSW 15/0 (17/0) 30(86) 74 1020 / 30.12
 09:55 Mostly Cloudy  WSW 14/0 (16/0) 30(85) 74 1020 / 30.11
 08:55 Mostly Cloudy  WSW 15/0 (17/0) 29(84) 78 1020 / 30.11
 07:55 Mostly Cloudy  SW 13/0 (15/0) 29(83) 80 1019 / 30.08
Island AWOS